createdAt,value
2023-03-17T00:00:59.405Z,1002.01
2023-03-17T00:01:59.453Z,1002.03
2023-03-17T00:02:59.386Z,1002.03
2023-03-17T00:03:59.444Z,1002.03
2023-03-17T00:04:59.360Z,1002.02
2023-03-17T00:05:59.400Z,1002.06
2023-03-17T00:06:59.359Z,1002.07
2023-03-17T00:07:59.350Z,1002.08
2023-03-17T00:08:59.319Z,1002.08
2023-03-17T00:09:59.323Z,1002.07
2023-03-17T00:10:59.311Z,1002.08
2023-03-17T00:11:59.324Z,1002.07
2023-03-17T00:12:59.275Z,1002.08
2023-03-17T00:13:59.277Z,1002.04
2023-03-17T00:14:59.269Z,1002.03
2023-03-17T00:15:59.321Z,1002.01
2023-03-17T00:16:59.249Z,1001.98
2023-03-17T00:17:59.231Z,1001.96
2023-03-17T00:18:59.232Z,1001.96
2023-03-17T00:19:59.199Z,1001.94
2023-03-17T00:20:59.236Z,1001.95
2023-03-17T00:21:59.195Z,1001.97
2023-03-17T00:22:59.184Z,1001.96
2023-03-17T00:23:59.172Z,1001.93
2023-03-17T00:24:59.159Z,1001.93
2023-03-17T00:25:59.137Z,1001.97
2023-03-17T00:26:59.170Z,1001.98
2023-03-17T00:27:59.143Z,1001.96
2023-03-17T00:28:59.185Z,1001.96
2023-03-17T00:29:59.090Z,1001.95
2023-03-17T00:30:59.247Z,1001.93
2023-03-17T00:31:59.077Z,1001.92
2023-03-17T00:32:59.137Z,1001.91
2023-03-17T00:33:59.048Z,1001.90
2023-03-17T00:34:59.069Z,1001.88
2023-03-17T00:35:59.083Z,1001.88
2023-03-17T00:36:59.029Z,1001.90
2023-03-17T00:37:59.003Z,1001.91
2023-03-17T00:38:59.010Z,1001.91
2023-03-17T00:39:58.984Z,1001.90
2023-03-17T00:40:59.020Z,1001.89
2023-03-17T00:41:58.964Z,1001.85
2023-03-17T00:42:58.970Z,1001.82
2023-03-17T00:43:58.943Z,1001.83
2023-03-17T00:44:58.953Z,1001.79
2023-03-17T00:45:58.966Z,1001.83
2023-03-17T00:46:58.994Z,1001.86
2023-03-17T00:47:58.921Z,1001.85
2023-03-17T00:48:58.908Z,1001.85
2023-03-17T00:49:58.888Z,1001.82
2023-03-17T00:50:58.883Z,1001.81
2023-03-17T00:51:58.866Z,1001.78
2023-03-17T00:52:58.898Z,1001.77
2023-03-17T00:53:58.914Z,1001.77
2023-03-17T00:54:58.828Z,1001.77
2023-03-17T00:55:58.823Z,1001.80
2023-03-17T00:56:58.816Z,1001.80
2023-03-17T00:57:58.796Z,1001.81
2023-03-17T00:58:58.802Z,1001.81
2023-03-17T00:59:58.767Z,1001.79
2023-03-17T01:00:58.837Z,1001.81
2023-03-17T01:01:58.799Z,1001.82
2023-03-17T01:02:58.758Z,1001.83
2023-03-17T01:03:58.744Z,1001.86
2023-03-17T01:05:05.768Z,1001.85
2023-03-17T01:05:58.698Z,1001.85
2023-03-17T01:06:58.709Z,1001.83
2023-03-17T01:07:58.681Z,1001.79
2023-03-17T01:08:58.698Z,1001.76
2023-03-17T01:09:58.664Z,1001.72
2023-03-17T01:10:58.664Z,1001.68
2023-03-17T01:11:58.632Z,1001.61
2023-03-17T01:12:58.660Z,1001.58
2023-03-17T01:13:58.637Z,1001.58
2023-03-17T01:14:58.610Z,1001.59
2023-03-17T01:15:58.650Z,1001.60
2023-03-17T01:16:58.600Z,1001.63
2023-03-17T01:17:58.575Z,1001.60
2023-03-17T01:18:58.627Z,1001.59
2023-03-17T01:19:58.578Z,1001.58
2023-03-17T01:20:58.564Z,1001.56
2023-03-17T01:21:58.537Z,1001.55
2023-03-17T01:22:58.546Z,1001.54
2023-03-17T01:23:58.497Z,1001.49
2023-03-17T01:24:58.524Z,1001.48
2023-03-17T01:25:58.486Z,1001.45
2023-03-17T01:26:58.487Z,1001.45
2023-03-17T01:27:58.469Z,1001.46
2023-03-17T01:28:58.482Z,1001.43
2023-03-17T01:29:58.444Z,1001.41
2023-03-17T01:30:58.485Z,1001.43
2023-03-17T01:31:58.476Z,1001.43
2023-03-17T01:32:58.486Z,1001.42
2023-03-17T01:33:58.392Z,1001.42
2023-03-17T01:34:58.425Z,1001.40
2023-03-17T01:35:58.490Z,1001.39
2023-03-17T01:36:58.368Z,1001.41
2023-03-17T01:37:58.351Z,1001.41
2023-03-17T01:38:58.369Z,1001.39
2023-03-17T01:39:58.338Z,1001.38
2023-03-17T01:40:58.341Z,1001.35
2023-03-17T01:41:58.324Z,1001.32
2023-03-17T01:42:58.335Z,1001.29
2023-03-17T01:43:58.292Z,1001.29
2023-03-17T01:44:58.315Z,1001.27
2023-03-17T01:45:58.305Z,1001.23
2023-03-17T01:46:58.277Z,1001.26
2023-03-17T01:47:58.249Z,1001.22
2023-03-17T01:48:58.260Z,1001.22
2023-03-17T01:49:58.222Z,1001.22
2023-03-17T01:50:58.272Z,1001.23
2023-03-17T01:51:58.233Z,1001.21
2023-03-17T01:52:58.214Z,1001.19
2023-03-17T01:53:58.196Z,1001.20
2023-03-17T01:54:58.190Z,1001.19
2023-03-17T01:55:58.165Z,1001.21
2023-03-17T01:56:58.185Z,1001.21
2023-03-17T01:57:58.144Z,1001.21
2023-03-17T01:58:58.159Z,1001.17
2023-03-17T01:59:58.120Z,1001.17
2023-03-17T02:00:58.156Z,1001.18
2023-03-17T02:01:58.107Z,1001.16
2023-03-17T02:02:58.127Z,1001.19
2023-03-17T02:03:58.110Z,1001.17
2023-03-17T02:04:58.084Z,1001.17
2023-03-17T02:05:58.120Z,1001.18
2023-03-17T02:06:58.899Z,1001.16
2023-03-17T02:07:58.053Z,1001.13
2023-03-17T02:08:58.039Z,1001.11
2023-03-17T02:09:58.012Z,1001.09
2023-03-17T02:10:58.029Z,1001.10
2023-03-17T02:11:58.002Z,1001.12
2023-03-17T02:12:57.994Z,1001.13
2023-03-17T02:13:58.012Z,1001.12
2023-03-17T02:14:57.974Z,1001.13
2023-03-17T02:15:57.946Z,1001.14
2023-03-17T02:16:57.980Z,1001.13
2023-03-17T02:17:57.925Z,1001.15
2023-03-17T02:18:57.944Z,1001.13
2023-03-17T02:19:57.912Z,1001.11
2023-03-17T02:20:57.916Z,1001.08
2023-03-17T02:21:57.912Z,1001.06
2023-03-17T02:22:57.878Z,1001.04
2023-03-17T02:23:57.860Z,1001.02
2023-03-17T02:24:57.883Z,1001.02
2023-03-17T02:25:57.838Z,1001.02
2023-03-17T02:26:57.841Z,1001.03
2023-03-17T02:27:57.815Z,1001.03
2023-03-17T02:28:57.822Z,1001.04
2023-03-17T02:29:57.806Z,1001.04
2023-03-17T07:00:56.294Z,1001.05
2023-03-17T07:01:57.256Z,1001.04
2023-03-17T07:02:57.195Z,1001.07
2023-03-17T07:03:57.160Z,1001.11
2023-03-17T07:04:57.228Z,1001.13
2023-03-17T07:05:57.185Z,1001.15
2023-03-17T07:06:57.166Z,1001.14
2023-03-17T07:07:57.127Z,1001.13
2023-03-17T07:08:57.126Z,1001.13
2023-03-17T07:09:57.114Z,1001.13
2023-03-17T07:10:57.103Z,1001.12
2023-03-17T07:11:57.110Z,1001.09
2023-03-17T07:12:57.089Z,1001.07
2023-03-17T07:13:57.062Z,1001.06
2023-03-17T07:14:57.076Z,1001.04
2023-03-17T07:16:00.341Z,1001.04
2023-03-17T07:16:57.059Z,1001.03
2023-03-17T07:17:57.008Z,1001.03
2023-03-17T07:18:57.027Z,1001.00
2023-03-17T07:19:56.998Z,1001.01
2023-03-17T07:20:57.028Z,1001.01
2023-03-17T07:21:56.971Z,1001.01
2023-03-17T07:22:56.977Z,1001.02
2023-03-17T07:23:56.961Z,1001.04
2023-03-17T07:24:56.971Z,1001.04
2023-03-17T07:25:56.928Z,1001.03
2023-03-17T07:26:56.976Z,1001.04
2023-03-17T07:27:56.919Z,1001.02
2023-03-17T07:28:56.938Z,1000.98
2023-03-17T07:29:56.949Z,1000.93
2023-03-17T07:30:56.905Z,1000.92
2023-03-17T07:31:56.876Z,1000.87
2023-03-17T07:32:56.935Z,1000.88
2023-03-17T07:33:57.398Z,1000.89
2023-03-17T07:34:56.868Z,1000.89
2023-03-17T07:35:56.924Z,1000.89
2023-03-17T07:36:56.845Z,1000.91
2023-03-17T07:37:56.819Z,1000.92
2023-03-17T07:38:56.826Z,1000.93
2023-03-17T07:39:56.800Z,1000.94
2023-03-17T07:40:56.842Z,1000.94
2023-03-17T07:41:56.777Z,1000.92
2023-03-17T07:42:56.777Z,1000.90
2023-03-17T07:43:56.773Z,1000.88
2023-03-17T07:44:56.751Z,1000.88
2023-03-17T07:45:56.720Z,1000.87
2023-03-17T07:46:56.744Z,1000.86
2023-03-17T07:47:56.701Z,1000.83
2023-03-17T07:48:56.737Z,1000.81
2023-03-17T07:49:56.663Z,1000.79
2023-03-17T07:50:56.668Z,1000.79
2023-03-17T07:51:56.684Z,1000.79
2023-03-17T07:52:56.676Z,1000.76
2023-03-17T07:53:56.645Z,1000.75
2023-03-17T07:54:56.675Z,1000.75
2023-03-17T07:55:56.632Z,1000.74
2023-03-17T07:56:56.645Z,1000.76
2023-03-17T07:57:56.606Z,1000.78
2023-03-17T07:58:56.588Z,1000.77
2023-03-17T07:59:56.595Z,1000.75
2023-03-17T08:00:56.593Z,1000.73
2023-03-17T08:01:56.549Z,1000.72
2023-03-17T08:03:09.259Z,1000.73
2023-03-17T08:03:56.758Z,1000.72
2023-03-17T08:04:56.518Z,1000.74
2023-03-17T08:05:56.529Z,1000.75
2023-03-17T08:06:56.502Z,1000.76
2023-03-17T08:07:56.475Z,1000.76
2023-03-17T08:08:56.542Z,1000.76
2023-03-17T08:09:56.449Z,1000.76
2023-03-17T08:10:56.482Z,1000.75
2023-03-17T08:11:56.434Z,1000.76
2023-03-17T08:12:56.475Z,1000.77
2023-03-17T08:13:56.408Z,1000.77
2023-03-17T08:14:56.442Z,1000.73
2023-03-17T08:15:56.413Z,1000.70
2023-03-17T08:16:56.501Z,1000.68
2023-03-17T08:17:56.375Z,1000.66
2023-03-17T08:18:56.366Z,1000.63
2023-03-17T08:19:56.353Z,1000.61
2023-03-17T08:20:56.375Z,1000.60
2023-03-17T08:21:56.331Z,1000.59
2023-03-17T08:22:56.511Z,1000.58
2023-03-17T08:23:56.333Z,1000.56
2023-03-17T08:24:56.351Z,1000.55
2023-03-17T08:25:56.326Z,1000.55
2023-03-17T08:26:56.935Z,1000.55
2023-03-17T08:27:56.288Z,1000.53
2023-03-17T08:28:56.263Z,1000.51
2023-03-17T08:29:56.269Z,1000.51
2023-03-17T08:30:56.317Z,1000.51
2023-03-17T08:31:56.315Z,1000.49
2023-03-17T08:32:56.243Z,1000.48
2023-03-17T08:33:56.246Z,1000.47
2023-03-17T08:34:56.204Z,1000.46
2023-03-17T08:35:56.227Z,1000.45
2023-03-17T08:36:56.165Z,1000.45
2023-03-17T08:37:56.338Z,1000.43
2023-03-17T08:38:56.197Z,1000.44
2023-03-17T08:39:56.159Z,1000.45
2023-03-17T08:40:56.127Z,1000.49
2023-03-17T08:41:56.122Z,1000.51
2023-03-17T08:42:56.153Z,1000.53
2023-03-17T08:43:56.175Z,1000.52
2023-03-17T08:44:56.135Z,1000.52
2023-03-17T08:45:56.111Z,1000.52
2023-03-17T08:46:56.062Z,1000.53
2023-03-17T08:47:56.114Z,1000.55
2023-03-17T08:48:56.058Z,1000.57
2023-03-17T08:49:56.078Z,1000.58
2023-03-17T08:50:56.207Z,1000.58
2023-03-17T08:51:56.042Z,1000.58
2023-03-17T08:52:56.002Z,1000.58
2023-03-17T08:53:56.020Z,1000.58
2023-03-17T08:54:56.004Z,1000.57
2023-03-17T08:55:56.265Z,1000.56
2023-03-17T08:56:55.954Z,1000.56
2023-03-17T08:57:55.968Z,1000.55
2023-03-17T08:58:55.970Z,1000.54
2023-03-17T08:59:55.973Z,1000.55
2023-03-17T09:00:56.036Z,1000.54
2023-03-17T09:01:56.064Z,1000.53
2023-03-17T09:02:55.947Z,1000.54
2023-03-17T09:03:55.912Z,1000.53
2023-03-17T09:04:55.858Z,1000.52
2023-03-17T09:05:55.885Z,1000.52
2023-03-17T09:07:03.241Z,1000.53
2023-03-17T09:07:55.927Z,1000.54
2023-03-17T09:08:55.826Z,1000.53
2023-03-17T09:09:55.831Z,1000.50
2023-03-17T09:10:55.797Z,1000.47
2023-03-17T09:11:55.815Z,1000.44
2023-03-17T09:12:55.807Z,1000.44
2023-03-17T09:13:55.820Z,1000.45
2023-03-17T09:14:55.787Z,1000.49
2023-03-17T09:15:55.799Z,1000.52
2023-03-17T09:16:55.741Z,1000.51
2023-03-17T09:17:55.779Z,1000.50
2023-03-17T09:18:55.760Z,1000.49
2023-03-17T09:19:55.762Z,1000.46
2023-03-17T09:20:55.702Z,1000.41
2023-03-17T09:21:55.703Z,1000.38
2023-03-17T09:22:55.680Z,1000.35
2023-03-17T09:23:55.681Z,1000.32
2023-03-17T09:24:55.774Z,1000.30
2023-03-17T09:25:55.657Z,1000.28
2023-03-17T09:26:55.676Z,1000.24
2023-03-17T09:27:56.658Z,1000.19
2023-03-17T09:28:55.605Z,1000.17
2023-03-17T09:29:55.740Z,1000.17
2023-03-17T09:30:56.897Z,1000.16
2023-03-17T09:31:55.597Z,1000.16
2023-03-17T09:32:55.643Z,1000.15
2023-03-17T09:33:55.570Z,1000.14
2023-03-17T09:34:55.569Z,1000.14
2023-03-17T09:35:55.565Z,1000.16
2023-03-17T09:36:55.597Z,1000.20
2023-03-17T09:37:55.538Z,1000.22
2023-03-17T09:38:55.501Z,1000.22
2023-03-17T09:39:55.520Z,1000.20
2023-03-17T09:40:55.488Z,1000.18
2023-03-17T09:41:55.553Z,1000.15
2023-03-17T09:42:55.492Z,1000.12
2023-03-17T09:43:55.459Z,1000.10
2023-03-17T09:44:55.450Z,1000.08
2023-03-17T09:45:55.446Z,1000.08
2023-03-17T09:46:55.577Z,1000.08
2023-03-17T09:47:55.470Z,1000.06
2023-03-17T09:48:55.435Z,1000.05
2023-03-17T09:49:55.422Z,1000.06
2023-03-17T09:50:55.389Z,1000.08
2023-03-17T09:51:55.368Z,1000.08
2023-03-17T09:52:55.381Z,1000.06
2023-03-17T09:53:55.355Z,1000.06
2023-03-17T09:54:55.339Z,1000.05
2023-03-17T09:55:55.325Z,1000.04
2023-03-17T09:56:55.358Z,1000.03
2023-03-17T09:57:55.313Z,1000.01
2023-03-17T09:58:55.279Z,999.99
2023-03-17T09:59:55.314Z,999.98
2023-03-17T10:00:55.264Z,999.98
2023-03-17T10:01:55.307Z,999.97
2023-03-17T10:02:55.236Z,999.96
2023-03-17T10:03:55.244Z,999.96
2023-03-17T10:04:55.301Z,999.97
2023-03-17T10:05:55.242Z,999.98
2023-03-17T10:06:55.234Z,999.97
2023-03-17T10:07:55.201Z,999.96
2023-03-17T10:08:55.190Z,999.96
2023-03-17T10:09:55.178Z,999.95
2023-03-17T10:10:55.172Z,999.93
2023-03-17T10:11:55.167Z,999.93
2023-03-17T10:12:55.158Z,999.93
2023-03-17T10:13:55.128Z,999.93
2023-03-17T10:14:55.111Z,999.92
2023-03-17T10:15:55.164Z,999.89
2023-03-17T10:16:55.101Z,999.87
2023-03-17T10:17:55.112Z,999.89
2023-03-17T10:18:55.066Z,999.90
2023-03-17T10:19:55.091Z,999.91
2023-03-17T10:20:55.047Z,999.92
2023-03-17T10:21:55.053Z,999.96
2023-03-17T10:22:55.024Z,999.97
2023-03-17T10:23:55.054Z,999.96
2023-03-17T10:24:55.005Z,999.94
2023-03-17T10:25:55.029Z,999.94
2023-03-17T10:26:55.871Z,999.91
2023-03-17T10:27:55.000Z,999.88
2023-03-17T10:28:54.973Z,999.87
2023-03-17T10:29:54.980Z,999.87
2023-03-17T10:30:54.960Z,999.87
2023-03-17T10:31:58.123Z,999.86
2023-03-17T10:32:54.978Z,999.85
2023-03-17T10:33:54.926Z,999.86
2023-03-17T10:34:54.892Z,999.85
2023-03-17T10:35:54.946Z,999.85
2023-03-17T10:36:54.888Z,999.85
2023-03-17T10:38:08.021Z,999.83
2023-03-17T10:38:54.877Z,999.83
2023-03-17T10:39:54.887Z,999.80
2023-03-17T10:40:54.838Z,999.79
2023-03-17T10:41:54.882Z,999.79
2023-03-17T10:42:54.827Z,999.79
2023-03-17T10:43:54.834Z,999.79
2023-03-17T10:44:54.819Z,999.79
2023-03-17T10:45:54.832Z,999.77
2023-03-17T10:46:54.868Z,999.75
2023-03-17T10:47:54.785Z,999.76
2023-03-17T10:48:54.758Z,999.73
2023-03-17T10:49:54.755Z,999.70
2023-03-17T10:50:54.725Z,999.70
2023-03-17T10:51:54.763Z,999.70
2023-03-17T10:52:54.719Z,999.69
2023-03-17T10:53:54.698Z,999.69
2023-03-17T10:54:54.704Z,999.68
2023-03-17T10:55:54.718Z,999.67
2023-03-17T10:56:54.652Z,999.67
2023-03-17T10:57:54.680Z,999.65
2023-03-17T10:58:54.660Z,999.65
2023-03-17T10:59:55.463Z,999.67
2023-03-17T11:00:54.672Z,999.68
2023-03-17T11:01:54.612Z,999.70
2023-03-17T11:02:54.619Z,999.73
2023-03-17T11:03:54.688Z,999.74
2023-03-17T11:04:54.562Z,999.74
2023-03-17T11:05:54.567Z,999.73
2023-03-17T11:06:54.557Z,999.72
2023-03-17T11:07:54.577Z,999.71
2023-03-17T11:08:54.526Z,999.71
2023-03-17T11:09:54.529Z,999.71
2023-03-17T11:10:54.508Z,999.70
2023-03-17T11:11:54.518Z,999.69
2023-03-17T11:12:54.504Z,999.68
2023-03-17T11:13:54.497Z,999.68
2023-03-17T11:14:54.457Z,999.67
2023-03-17T11:15:54.465Z,999.67
2023-03-17T11:16:54.469Z,999.67
2023-03-17T11:17:54.443Z,999.68
2023-03-17T11:18:54.432Z,999.69
2023-03-17T11:19:54.469Z,999.68
2023-03-17T11:20:54.401Z,999.68
2023-03-17T11:21:54.412Z,999.68
2023-03-17T11:22:54.381Z,999.67
2023-03-17T11:23:54.384Z,999.66
2023-03-17T11:24:54.400Z,999.66
2023-03-17T11:25:54.371Z,999.64
2023-03-17T11:26:54.360Z,999.64
2023-03-17T11:27:54.331Z,999.62
2023-03-17T11:28:54.316Z,999.60
2023-03-17T11:29:54.346Z,999.57
2023-03-17T11:30:54.327Z,999.55
2023-03-17T11:31:54.375Z,999.54
2023-03-17T11:32:54.287Z,999.53
2023-03-17T11:33:54.270Z,999.50
2023-03-17T11:34:54.253Z,999.48
2023-03-17T11:35:54.285Z,999.46
2023-03-17T11:36:56.485Z,999.44
2023-03-17T11:37:54.231Z,999.42
2023-03-17T11:38:54.195Z,999.42
2023-03-17T11:39:54.225Z,999.41
2023-03-17T11:40:54.182Z,999.42
2023-03-17T11:41:54.195Z,999.41
2023-03-17T11:42:55.369Z,999.41
2023-03-17T11:43:54.216Z,999.40
2023-03-17T11:44:54.135Z,999.37
2023-03-17T11:45:54.314Z,999.33
2023-03-17T11:46:54.164Z,999.31
2023-03-17T11:47:54.146Z,999.31
2023-03-17T11:48:54.147Z,999.32
2023-03-17T11:49:54.106Z,999.33
2023-03-17T11:50:54.078Z,999.34
2023-03-17T11:51:54.106Z,999.34
2023-03-17T11:52:54.074Z,999.33
2023-03-17T11:53:54.054Z,999.31
2023-03-17T11:54:55.988Z,999.29
2023-03-17T11:55:54.027Z,999.27
2023-03-17T11:56:54.007Z,999.25
2023-03-17T11:57:54.006Z,999.23
2023-03-17T11:58:54.019Z,999.21
2023-03-17T11:59:53.982Z,999.18
2023-03-17T12:00:53.975Z,999.14
2023-03-17T12:01:53.974Z,999.12
2023-03-17T12:02:53.939Z,999.10
2023-03-17T12:03:54.139Z,999.08
2023-03-17T12:04:53.949Z,999.05
2023-03-17T12:05:53.930Z,999.03
2023-03-17T12:06:55.416Z,999.02
2023-03-17T12:07:53.887Z,999.01
2023-03-17T12:08:53.871Z,999.02
2023-03-17T12:09:53.897Z,999.02
2023-03-17T12:10:53.842Z,999.00
2023-03-17T12:11:53.861Z,998.98
2023-03-17T12:12:53.837Z,998.96
2023-03-17T12:13:53.834Z,998.93
2023-03-17T12:14:53.805Z,998.91
2023-03-17T12:15:53.863Z,998.90
2023-03-17T12:16:53.822Z,998.89
2023-03-17T12:17:53.779Z,998.89
2023-03-17T12:18:53.793Z,998.89
2023-03-17T12:19:53.759Z,998.88
2023-03-17T12:20:53.754Z,998.86
2023-03-17T12:21:53.763Z,998.85
2023-03-17T12:22:55.805Z,998.84
2023-03-17T12:23:53.726Z,998.82
2023-03-17T12:24:53.713Z,998.81
2023-03-17T12:25:53.706Z,998.81
2023-03-17T12:26:53.745Z,998.81
2023-03-17T12:27:53.710Z,998.80
2023-03-17T12:28:55.194Z,998.78
2023-03-17T12:29:53.672Z,998.77
2023-03-17T12:30:53.663Z,998.76
2023-03-17T12:31:53.631Z,998.76
2023-03-17T12:32:53.738Z,998.76
2023-03-17T12:33:53.658Z,998.76
2023-03-17T12:34:55.012Z,998.75
2023-03-17T12:35:53.612Z,998.75
2023-03-17T12:36:53.652Z,998.75
2023-03-17T12:37:53.568Z,998.74
2023-03-17T12:38:53.550Z,998.73
2023-03-17T12:39:53.545Z,998.72
2023-03-17T12:40:53.529Z,998.73
2023-03-17T12:41:53.559Z,998.72
2023-03-17T12:42:53.495Z,998.71
2023-03-17T12:43:53.510Z,998.68
2023-03-17T12:44:53.483Z,998.68
2023-03-17T12:45:54.358Z,998.68
2023-03-17T12:46:53.526Z,998.67
2023-03-17T12:47:53.438Z,998.65
2023-03-17T12:48:53.461Z,998.63
2023-03-17T12:49:53.418Z,998.63
2023-03-17T12:50:53.434Z,998.64
2023-03-17T12:51:53.407Z,998.63
2023-03-17T12:52:53.522Z,998.63
2023-03-17T12:53:53.373Z,998.64
2023-03-17T12:54:53.380Z,998.67
2023-03-17T12:55:53.347Z,998.64
2023-03-17T12:56:54.063Z,998.61
2023-03-17T12:57:53.337Z,998.62
2023-03-17T12:58:53.396Z,998.59
2023-03-17T12:59:53.309Z,998.57
2023-03-17T13:00:53.322Z,998.57
2023-03-17T13:01:53.334Z,998.55
2023-03-17T13:02:53.339Z,998.55
2023-03-17T13:03:53.263Z,998.58
2023-03-17T13:04:53.298Z,998.56
2023-03-17T13:05:53.240Z,998.55
2023-03-17T13:06:53.248Z,998.56
2023-03-17T13:07:53.346Z,998.56
2023-03-17T13:08:53.225Z,998.57
2023-03-17T13:09:53.222Z,998.56
2023-03-17T13:10:53.236Z,998.55
2023-03-17T13:11:53.178Z,998.54
2023-03-17T13:12:53.180Z,998.52
2023-03-17T13:13:53.163Z,998.52
2023-03-17T13:14:53.153Z,998.51
2023-03-17T13:15:53.181Z,998.51
2023-03-17T13:16:53.154Z,998.55
2023-03-17T13:17:53.129Z,998.53
2023-03-17T13:18:53.119Z,998.52
2023-03-17T13:19:53.093Z,998.49
2023-03-17T13:20:53.112Z,998.47
2023-03-17T13:21:53.097Z,998.43
2023-03-17T13:22:53.068Z,998.41
2023-03-17T13:23:53.046Z,998.42
2023-03-17T13:24:53.063Z,998.42
2023-03-17T13:25:53.026Z,998.42
2023-03-17T13:26:54.895Z,998.40
2023-03-17T13:27:53.023Z,998.39
2023-03-17T13:28:53.012Z,998.36
2023-03-17T13:29:52.990Z,998.33
2023-03-17T13:30:52.984Z,998.32
2023-03-17T13:31:53.034Z,998.32
2023-03-17T13:32:53.085Z,998.33
2023-03-17T13:33:52.946Z,998.35
2023-03-17T13:34:52.973Z,998.33
2023-03-17T13:35:52.988Z,998.32
2023-03-17T13:36:52.915Z,998.33
2023-03-17T13:37:52.910Z,998.34
2023-03-17T13:39:15.011Z,998.35
2023-03-17T13:39:52.877Z,998.34
2023-03-17T13:40:52.903Z,998.34
2023-03-17T13:41:52.862Z,998.35
2023-03-17T13:42:52.865Z,998.33
2023-03-17T13:43:52.853Z,998.31
2023-03-17T13:44:52.849Z,998.30
2023-03-17T13:45:52.806Z,998.29
2023-03-17T13:46:52.875Z,998.30
2023-03-17T13:47:52.833Z,998.30
2023-03-17T13:48:52.815Z,998.30
2023-03-17T13:49:52.773Z,998.28
2023-03-17T13:50:52.785Z,998.26
2023-03-17T13:51:59.594Z,998.21
2023-03-17T13:52:52.773Z,998.18
2023-03-17T13:53:52.726Z,998.18
2023-03-17T13:54:52.762Z,998.16
2023-03-17T13:55:52.755Z,998.17
2023-03-17T13:56:52.709Z,998.17
2023-03-17T13:57:52.686Z,998.16
2023-03-17T13:58:52.734Z,998.16
2023-03-17T13:59:52.684Z,998.17
2023-03-17T14:00:52.738Z,998.15
2023-03-17T14:01:52.646Z,998.15
2023-03-17T14:02:52.659Z,998.16
2023-03-17T14:03:52.630Z,998.15
2023-03-17T14:04:52.667Z,998.14
2023-03-17T14:05:52.654Z,998.13
2023-03-17T14:06:52.595Z,998.11
2023-03-17T14:07:52.585Z,998.10
2023-03-17T14:08:52.574Z,998.10
2023-03-17T14:09:52.566Z,998.13
2023-03-17T14:10:52.557Z,998.15
2023-03-17T14:11:52.538Z,998.14
2023-03-17T14:12:52.562Z,998.13
2023-03-17T14:13:52.531Z,998.11
2023-03-17T14:14:52.538Z,998.07
2023-03-17T14:15:52.530Z,998.07
2023-03-17T14:16:52.491Z,998.04
2023-03-17T14:17:52.468Z,998.04
2023-03-17T14:18:52.469Z,998.02
2023-03-17T14:19:52.454Z,998.01
2023-03-17T14:20:52.439Z,998.02
2023-03-17T14:21:52.484Z,998.03
2023-03-17T14:22:52.422Z,998.03
2023-03-17T14:23:52.411Z,998.03
2023-03-17T14:24:52.396Z,998.04
2023-03-17T14:25:52.380Z,998.03
2023-03-17T14:26:52.397Z,998.03
2023-03-17T14:27:52.378Z,998.03
2023-03-17T14:28:52.360Z,998.03
2023-03-17T14:29:52.436Z,998.02
2023-03-17T14:30:52.333Z,998.00
2023-03-17T14:31:52.364Z,997.98
2023-03-17T14:32:52.359Z,997.96
2023-03-17T14:33:52.311Z,997.95
2023-03-17T14:34:52.298Z,997.93
2023-03-17T14:35:52.342Z,997.94
2023-03-17T14:36:52.290Z,997.96
2023-03-17T14:37:52.277Z,997.97
2023-03-17T14:38:52.274Z,997.97
2023-03-17T14:39:52.235Z,997.95
2023-03-17T14:40:52.229Z,997.94
2023-03-17T14:41:52.201Z,997.91
2023-03-17T14:42:52.198Z,997.88
2023-03-17T14:43:52.261Z,997.87
2023-03-17T14:44:52.175Z,997.85
2023-03-17T14:45:52.231Z,997.84
2023-03-17T14:46:52.159Z,997.84
2023-03-17T14:47:52.150Z,997.83
2023-03-17T14:48:52.177Z,997.82
2023-03-17T14:49:52.109Z,997.80
2023-03-17T14:50:52.118Z,997.77
2023-03-17T14:51:52.089Z,997.74
2023-03-17T14:52:52.134Z,997.72
2023-03-17T14:53:52.081Z,997.71
2023-03-17T14:54:52.116Z,997.71
2023-03-17T14:55:52.070Z,997.71
2023-03-17T14:56:52.073Z,997.70
2023-03-17T14:57:52.032Z,997.69
2023-03-17T14:58:52.093Z,997.66
2023-03-17T14:59:52.025Z,997.64
2023-03-17T15:00:52.055Z,997.63
2023-03-17T15:01:51.995Z,997.62
2023-03-17T15:02:51.993Z,997.62
2023-03-17T15:03:51.973Z,997.62
2023-03-17T15:04:51.989Z,997.62
2023-03-17T15:05:51.941Z,997.61
2023-03-17T15:06:51.943Z,997.60
2023-03-17T15:07:51.951Z,997.58
2023-03-17T15:08:51.920Z,997.59
2023-03-17T15:09:51.893Z,997.58
2023-03-17T15:10:51.971Z,997.57
2023-03-17T15:11:51.878Z,997.56
2023-03-17T15:12:51.885Z,997.55
2023-03-17T15:13:51.867Z,997.52
2023-03-17T15:14:51.864Z,997.50
2023-03-17T15:15:51.823Z,997.49
2023-03-17T15:16:51.956Z,997.48
2023-03-17T15:17:51.836Z,997.47
2023-03-17T15:18:51.823Z,997.46
2023-03-17T15:19:51.780Z,997.45
2023-03-17T15:20:51.806Z,997.45
2023-03-17T15:21:51.782Z,997.45
2023-03-17T15:22:51.804Z,997.46
2023-03-17T15:23:51.755Z,997.48
2023-03-17T15:24:51.748Z,997.49
2023-03-17T15:25:51.737Z,997.48
2023-03-17T15:26:51.735Z,997.47
2023-03-17T15:27:51.714Z,997.46
2023-03-17T15:28:51.717Z,997.44
2023-03-17T15:29:51.677Z,997.43
2023-03-17T15:30:52.046Z,997.41
2023-03-17T15:31:51.708Z,997.39
2023-03-17T15:32:51.724Z,997.36
2023-03-17T15:33:51.647Z,997.35
2023-03-17T15:34:51.664Z,997.35
2023-03-17T15:35:51.689Z,997.36
2023-03-17T15:36:51.639Z,997.35
2023-03-17T15:37:51.597Z,997.33
2023-03-17T15:38:51.634Z,997.32
2023-03-17T15:39:51.589Z,997.34
2023-03-17T15:40:51.602Z,997.38
2023-03-17T15:41:51.561Z,997.38
2023-03-17T15:42:51.591Z,997.39
2023-03-17T15:43:51.532Z,997.39
2023-03-17T15:44:51.560Z,997.37
2023-03-17T15:45:51.555Z,997.36
2023-03-17T15:46:51.551Z,997.38
2023-03-17T15:47:51.512Z,997.39
2023-03-17T15:48:51.500Z,997.39
2023-03-17T15:49:51.477Z,997.39
2023-03-17T15:50:51.469Z,997.39
2023-03-17T15:51:51.473Z,997.39
2023-03-17T15:52:51.459Z,997.38
2023-03-17T15:53:51.448Z,997.38
2023-03-17T15:54:51.418Z,997.40
2023-03-17T15:55:51.397Z,997.42
2023-03-17T15:56:51.421Z,997.41
2023-03-17T15:57:55.145Z,997.41
2023-03-17T15:58:51.415Z,997.42
2023-03-17T15:59:51.343Z,997.44
2023-03-17T16:00:51.342Z,997.47
2023-03-17T16:01:51.343Z,997.48
2023-03-17T16:02:51.352Z,997.49
2023-03-17T16:03:51.358Z,997.49
2023-03-17T16:04:51.313Z,997.48
2023-03-17T16:05:51.278Z,997.47
2023-03-17T16:06:51.285Z,997.47
2023-03-17T16:07:51.262Z,997.48
2023-03-17T16:08:51.271Z,997.48
2023-03-17T16:09:51.266Z,997.49
2023-03-17T16:10:51.254Z,997.48
2023-03-17T16:11:51.215Z,997.48
2023-03-17T16:12:51.226Z,997.49
2023-03-17T16:13:51.203Z,997.52
2023-03-17T16:14:51.237Z,997.55
2023-03-17T16:15:51.231Z,997.56
2023-03-17T16:16:51.207Z,997.58
2023-03-17T16:17:51.150Z,997.58
2023-03-17T16:18:51.167Z,997.59
2023-03-17T16:19:51.135Z,997.61
2023-03-17T16:20:51.214Z,997.65
2023-03-17T16:21:51.107Z,997.67
2023-03-17T16:22:51.114Z,997.71
2023-03-17T16:23:51.093Z,997.73
2023-03-17T16:24:51.101Z,997.74
2023-03-17T16:25:51.723Z,997.73
2023-03-17T16:26:51.090Z,997.72
2023-03-17T16:27:51.058Z,997.72
2023-03-17T16:28:51.046Z,997.73
2023-03-17T16:29:51.025Z,997.74
2023-03-17T16:30:51.046Z,997.75
2023-03-17T16:31:51.076Z,997.75
2023-03-17T16:32:51.069Z,997.75
2023-03-17T16:33:50.990Z,997.75
2023-03-17T16:34:51.007Z,997.76
2023-03-17T16:35:51.000Z,997.76
2023-03-17T16:36:51.024Z,997.76
2023-03-17T16:37:50.946Z,997.74
2023-03-17T16:38:50.954Z,997.74
2023-03-17T16:39:50.925Z,997.75
2023-03-17T16:40:50.926Z,997.75
2023-03-17T16:41:50.892Z,997.74
2023-03-17T16:42:50.938Z,997.73
2023-03-17T16:43:50.887Z,997.72
2023-03-17T16:44:50.977Z,997.71
2023-03-17T16:45:50.862Z,997.70
2023-03-17T16:46:50.886Z,997.69
2023-03-17T16:47:50.841Z,997.69
2023-03-17T16:48:50.858Z,997.67